Atka, Alaska
Current Conditions -  °F | °C
As of 2:36 AM on Tuesday 27 Jan 2015 (Local Time) from PAAK Reporting Station
Overcast Overcast  
Wind Chill: 22°   Ceiling: 2200
Heat Index: 34°   Visibility: 5mi
Dew Point: 27°   Wind: 22mph
Humidity: 75%   Direction: 330°NNW
Pressure: 29.49"   Gusts: 26mph
Location:  52.19°N, 174.2°W
Report Text: PAAK 271236Z 33019G23KT 5SM FEW014 BKN022 OVC027 01/M03 A2949 RMK AO1
Loading
Personal Weather Stations






























Interactive Weather Map New forecast layout! Learn more

10-Day Weather Forecast

Advertisements
Track Severe Weather on mobile